Time;durP1;ratioP1;P1;durP2;ratioP2;P2;SDS_P1;SDS_P2;PMS_P1;PMS_P2;Temp;Humidity;BMP_temperature;BMP_pressure;BME280_temperature;BME280_humidity;BME280_pressure;Samples;Min_cycle;Max_cycle;Signal;HPM_P1;HPM_P2
2021/09/14 00:01:28;;;;;;;4.07;3.67;;;13.80;99.90;;;;;;6195800;28;20212;-71
2021/09/14 00:04:31;;;;;;;4.30;3.90;;;13.70;99.90;;;;;;6194140;28;20225;-71
2021/09/14 00:07:33;;;;;;;4.67;4.27;;;13.70;99.90;;;;;;6195511;28;20181;-71
2021/09/14 00:10:36;;;;;;;4.33;3.93;;;13.70;99.90;;;;;;6195789;28;20688;-71
2021/09/14 00:13:39;;;;;;;4.73;4.00;;;13.70;99.90;;;;;;6195892;28;20201;-71
2021/09/14 00:16:42;;;;;;;3.73;3.30;;;13.70;99.90;;;;;;6174019;28;20205;-71
2021/09/14 00:19:44;;;;;;;4.40;4.00;;;13.70;99.90;;;;;;6185936;28;20668;-71
2021/09/14 00:22:46;;;;;;;3.90;3.60;;;13.70;99.90;;;;;;6186681;28;20772;-71
2021/09/14 00:25:48;;;;;;;4.23;3.93;;;13.70;99.90;;;;;;6179098;28;20208;-71
2021/09/14 00:28:51;;;;;;;5.00;3.80;;;13.70;99.90;;;;;;6194352;28;20205;-71
2021/09/14 00:31:53;;;;;;;3.83;3.53;;;13.70;99.90;;;;;;6210439;28;20201;-71
2021/09/14 00:34:55;;;;;;;4.83;4.03;;;13.60;99.90;;;;;;6210180;28;20305;-71
2021/09/14 00:37:57;;;;;;;4.30;3.80;;;13.60;99.90;;;;;;6194148;28;20752;-71
2021/09/14 00:41:00;;;;;;;3.80;3.50;;;13.60;99.90;;;;;;6210218;28;20665;-71
2021/09/14 00:44:04;;;;;;;4.47;3.87;;;13.50;99.90;;;;;;6193867;28;20208;-72
2021/09/14 00:47:06;;;;;;;4.93;4.20;;;13.50;99.90;;;;;;6195138;28;20209;-72
2021/09/14 00:50:09;;;;;;;4.43;3.97;;;13.40;99.90;;;;;;6210051;28;20211;-72
2021/09/14 00:53:11;;;;;;;3.80;3.50;;;13.40;99.90;;;;;;6195411;28;20304;-72
2021/09/14 00:56:15;;;;;;;5.27;4.07;;;13.40;99.90;;;;;;6193624;28;20189;-72
2021/09/14 00:59:17;;;;;;;4.07;3.70;;;13.40;99.90;;;;;;6181956;28;20728;-72
2021/09/14 01:02:20;;;;;;;5.00;4.40;;;13.40;99.90;;;;;;6214382;28;20719;-72
2021/09/14 01:05:22;;;;;;;5.63;4.07;;;13.40;99.90;;;;;;6199473;28;20217;-72
2021/09/14 01:08:26;;;;;;;4.63;4.23;;;13.40;99.90;;;;;;6214610;28;20687;-72
2021/09/14 01:11:30;;;;;;;8.47;4.60;;;13.30;99.90;;;;;;6214313;28;20276;-72
2021/09/14 01:14:33;;;;;;;4.37;3.97;;;13.30;99.90;;;;;;6203805;28;20285;-72
2021/09/14 01:17:35;;;;;;;4.03;3.73;;;13.30;99.90;;;;;;6212956;28;20284;-72
2021/09/14 01:20:37;;;;;;;5.70;3.87;;;13.30;99.90;;;;;;6198008;28;20193;-72
2021/09/14 01:23:40;;;;;;;4.73;3.53;;;13.30;99.90;;;;;;6199037;28;20216;-72
2021/09/14 01:26:42;;;;;;;4.87;4.27;;;13.30;99.90;;;;;;6214160;28;20379;-72
2021/09/14 01:33:08;;;;;;;5.17;3.90;;;13.40;99.90;;;;;;6213905;28;20209;-72
2021/09/14 01:36:13;;;;;;;4.40;3.90;;;13.40;99.90;;;;;;6197713;28;20201;-72
2021/09/14 01:39:17;;;;;;;3.70;3.40;;;13.40;99.90;;;;;;6213729;28;20665;-72
2021/09/14 01:42:20;;;;;;;4.27;3.70;;;13.30;99.90;;;;;;6181506;28;20660;-72
2021/09/14 01:45:23;;;;;;;4.33;3.93;;;13.30;99.90;;;;;;6213650;28;20246;-72
2021/09/14 01:48:26;;;;;;;4.80;3.40;;;13.30;99.90;;;;;;6213501;28;20284;-72
2021/09/14 01:51:28;;;;;;;4.17;3.77;;;13.30;99.90;;;;;;6197291;28;20288;-72
2021/09/14 01:54:31;;;;;;;4.97;3.93;;;13.30;99.90;;;;;;6213467;28;20190;-72
2021/09/14 01:57:35;;;;;;;4.17;3.47;;;13.20;99.90;;;;;;6181496;28;20213;-72
2021/09/14 02:00:44;;;;;;;3.93;3.20;;;13.20;99.90;;;;;;6213250;28;20218;-72
2021/09/14 02:03:59;;;;;;;3.60;3.30;;;13.20;99.90;;;;;;6196663;28;20710;-72
2021/09/14 02:07:26;;;;;;;5.33;3.67;;;13.20;99.90;;;;;;6213101;28;20229;-72
2021/09/14 02:24:07;;;;;;;4.50;3.97;;;13.10;99.90;;;;;;6188601;28;20202;-72
2021/09/14 02:38:19;;;;;;;4.10;3.70;;;13.00;99.90;;;;;;6212505;28;20209;-72
2021/09/14 02:44:05;;;;;;;4.70;4.30;;;13.00;99.90;;;;;;6212379;28;20201;-72
2021/09/14 03:00:17;;;;;;;5.13;4.17;;;12.90;99.90;;;;;;6211884;28;20223;-72
2021/09/14 03:03:19;;;;;;;5.03;4.57;;;12.90;99.90;;;;;;6211729;28;20268;-72
2021/09/14 03:06:23;;;;;;;5.77;4.97;;;12.90;99.90;;;;;;6179524;28;20224;-72
2021/09/14 03:09:30;;;;;;;4.73;4.23;;;12.90;99.90;;;;;;6179902;28;20219;-72
2021/09/14 03:12:33;;;;;;;4.50;4.10;;;12.90;99.90;;;;;;6179183;28;20200;-72
2021/09/14 03:15:36;;;;;;;4.40;4.00;;;12.90;99.90;;;;;;6192162;28;20779;-72
2021/09/14 03:18:39;;;;;;;4.37;3.97;;;12.90;99.90;;;;;;6180727;28;20201;-72
2021/09/14 03:21:41;;;;;;;5.70;4.30;;;12.90;99.90;;;;;;6187003;28;20806;-72
2021/09/14 03:24:46;;;;;;;4.07;3.77;;;12.90;99.90;;;;;;6194877;28;20208;-72
2021/09/14 03:27:50;;;;;;;4.23;3.83;;;12.90;99.90;;;;;;6211352;28;20559;-72
2021/09/14 03:30:53;;;;;;;4.90;4.17;;;12.90;99.90;;;;;;6194768;28;20210;-72
2021/09/14 03:33:57;;;;;;;4.50;4.10;;;12.90;99.90;;;;;;6211247;28;20277;-72
2021/09/14 03:36:59;;;;;;;5.60;4.60;;;12.90;99.90;;;;;;6194788;28;20209;-72
2021/09/14 03:40:05;;;;;;;5.07;4.57;;;12.90;99.90;;;;;;6179444;28;20295;-72
2021/09/14 03:43:15;;;;;;;5.47;4.57;;;12.80;99.90;;;;;;6210792;28;20216;-72
2021/09/14 03:46:18;;;;;;;4.63;4.23;;;12.80;99.90;;;;;;6194605;28;20211;-72
2021/09/14 03:49:20;;;;;;;4.90;4.40;;;12.80;99.90;;;;;;6211008;28;20767;-72
2021/09/14 03:52:23;;;;;;;5.17;4.67;;;12.80;99.90;;;;;;6194930;28;20203;-72
2021/09/14 03:55:26;;;;;;;5.00;4.50;;;12.80;99.90;;;;;;6178454;28;20676;-72
2021/09/14 03:58:29;;;;;;;5.87;4.57;;;12.80;99.90;;;;;;6194404;28;20205;-72
2021/09/14 04:01:36;;;;;;;5.10;4.60;;;12.80;99.90;;;;;;6194446;28;20782;-72
2021/09/14 04:05:02;;;;;;;5.23;4.73;;;12.80;99.90;;;;;;6210729;28;20709;-72
2021/09/14 04:11:15;;;;;;;5.60;4.93;;;12.80;99.90;;;;;;6210535;28;20201;-72
2021/09/14 04:14:18;;;;;;;5.20;4.70;;;12.80;99.90;;;;;;6212932;28;20287;-72
2021/09/14 04:17:22;;;;;;;5.27;4.60;;;12.80;99.90;;;;;;6203483;28;20219;-72
2021/09/14 04:20:24;;;;;;;5.60;4.97;;;12.80;99.90;;;;;;6178128;28;20288;-72
2021/09/14 04:23:26;;;;;;;7.57;4.67;;;12.80;99.90;;;;;;6186099;28;20197;-72
2021/09/14 04:26:29;;;;;;;4.90;4.40;;;12.80;99.90;;;;;;6176749;28;20217;-72
2021/09/14 04:29:32;;;;;;;5.30;4.80;;;12.80;99.90;;;;;;6193920;28;20199;-72
2021/09/14 04:32:36;;;;;;;5.47;4.97;;;12.80;99.90;;;;;;6213811;28;20222;-72
2021/09/14 04:35:39;;;;;;;5.13;4.60;;;12.80;99.90;;;;;;6215387;28;20204;-72
2021/09/14 04:38:42;;;;;;;5.27;4.77;;;12.80;99.90;;;;;;6199080;28;20743;-72
2021/09/14 04:41:46;;;;;;;5.10;4.60;;;12.80;99.90;;;;;;6182939;28;20204;-72
2021/09/14 04:44:49;;;;;;;5.60;4.87;;;12.80;99.90;;;;;;6198667;28;20298;-72
2021/09/14 04:47:51;;;;;;;5.77;4.90;;;12.80;99.90;;;;;;6214945;28;20370;-72
2021/09/14 04:50:53;;;;;;;6.27;5.13;;;12.90;99.90;;;;;;6214855;28;20197;-72
2021/09/14 04:53:57;;;;;;;5.47;4.97;;;12.90;99.90;;;;;;6214444;28;20207;-72
2021/09/14 04:56:59;;;;;;;4.83;4.43;;;12.90;99.90;;;;;;6214551;28;20608;-72
2021/09/14 05:00:04;;;;;;;5.50;5.00;;;12.90;99.90;;;;;;6197796;28;20669;-72
2021/09/14 05:03:10;;;;;;;6.30;5.00;;;13.00;99.90;;;;;;6214053;28;20270;-72
2021/09/14 05:06:12;;;;;;;5.97;4.60;;;13.00;99.90;;;;;;6181729;28;20302;-72
2021/09/14 05:09:15;;;;;;;5.27;4.80;;;13.00;99.90;;;;;;6197628;28;20279;-72
2021/09/14 05:12:21;;;;;;;5.50;4.90;;;13.00;99.90;;;;;;6198352;28;20277;-72
2021/09/14 05:15:24;;;;;;;6.20;5.07;;;13.10;99.90;;;;;;6197892;28;20278;-72
2021/09/14 05:18:28;;;;;;;5.47;4.97;;;13.10;99.90;;;;;;6198084;28;20704;-72
2021/09/14 05:21:40;;;;;;;4.60;4.20;;;13.10;99.90;;;;;;6194103;28;20193;-72
2021/09/14 05:24:42;;;;;;;5.27;4.77;;;13.10;99.90;;;;;;6199408;28;20200;-72
2021/09/14 05:27:44;;;;;;;7.60;4.70;;;13.20;99.90;;;;;;6213638;28;20592;-72
2021/09/14 05:30:47;;;;;;;6.70;4.63;;;13.30;99.90;;;;;;6174607;28;20799;-72
2021/09/14 05:33:49;;;;;;;5.93;5.43;;;13.30;99.90;;;;;;6193740;28;20200;-72
2021/09/14 05:36:53;;;;;;;5.53;5.03;;;13.30;99.90;;;;;;6213395;28;20207;-72
2021/09/14 05:39:55;;;;;;;6.13;5.07;;;13.40;99.90;;;;;;6197234;28;20603;-72
2021/09/14 05:42:58;;;;;;;7.07;5.03;;;13.50;99.90;;;;;;6196461;28;20200;-72
2021/09/14 05:46:01;;;;;;;6.80;5.53;;;13.50;99.90;;;;;;6180924;28;20214;-72
2021/09/14 05:49:06;;;;;;;6.13;5.00;;;13.50;99.90;;;;;;6196762;28;20190;-72
2021/09/14 05:52:10;;;;;;;5.67;5.17;;;13.60;99.90;;;;;;6205706;28;20209;-72
2021/09/14 05:55:12;;;;;;;6.70;5.60;;;13.60;99.90;;;;;;6198015;28;20328;-72
2021/09/14 05:58:15;;;;;;;5.60;5.10;;;13.60;99.90;;;;;;6180653;28;20232;-72
2021/09/14 06:01:17;;;;;;;5.70;5.00;;;13.70;99.90;;;;;;6196893;28;20705;-72
2021/09/14 06:04:20;;;;;;;5.30;4.80;;;13.80;99.90;;;;;;6195428;28;20240;-72
2021/09/14 06:07:22;;;;;;;5.83;5.33;;;13.80;99.90;;;;;;6196092;28;20303;-72
2021/09/14 06:10:28;;;;;;;6.30;4.97;;;13.80;99.90;;;;;;6212565;28;20268;-72
2021/09/14 06:13:46;;;;;;;5.47;4.97;;;13.90;99.90;;;;;;6212372;28;20186;-72
2021/09/14 06:16:50;;;;;;;5.93;5.33;;;13.90;99.90;;;;;;6198737;28;20212;-72
2021/09/14 06:19:58;;;;;;;5.40;4.60;;;14.00;99.90;;;;;;6212382;28;20254;-72
2021/09/14 06:23:02;;;;;;;5.87;5.37;;;14.10;99.90;;;;;;6212630;28;20204;-72
2021/09/14 06:26:05;;;;;;;8.53;5.07;;;14.20;99.90;;;;;;6197093;28;20731;-72
2021/09/14 06:29:07;;;;;;;5.93;5.20;;;14.30;99.90;;;;;;6195937;28;20194;-72
2021/09/14 06:32:10;;;;;;;5.53;4.93;;;14.40;99.90;;;;;;6195684;28;20395;-72
2021/09/14 06:35:35;;;;;;;5.67;5.17;;;14.50;99.90;;;;;;6195542;28;20285;-72
2021/09/14 06:38:47;;;;;;;5.60;5.10;;;14.60;99.90;;;;;;6211855;28;20197;-72
2021/09/14 06:41:51;;;;;;;5.53;5.03;;;14.70;99.90;;;;;;6179828;28;20201;-72
2021/09/14 06:44:58;;;;;;;5.17;4.67;;;14.80;99.90;;;;;;6211636;28;20332;-72
2021/09/14 06:48:21;;;;;;;5.23;4.83;;;14.90;99.90;;;;;;6196631;28;20217;-72
2021/09/14 06:51:24;;;;;;;5.40;4.90;;;14.90;99.90;;;;;;6196603;28;20720;-72
2021/09/14 06:54:26;;;;;;;5.50;5.03;;;15.00;99.90;;;;;;6194300;28;20201;-72
2021/09/14 06:57:29;;;;;;;5.20;4.70;;;15.10;99.90;;;;;;6195254;28;20217;-72
2021/09/14 07:00:32;;;;;;;4.80;4.40;;;15.20;99.90;;;;;;6211065;28;20232;-72
2021/09/14 07:03:39;;;;;;;6.37;5.00;;;15.30;99.90;;;;;;6194076;28;20237;-72
2021/09/14 07:06:52;;;;;;;5.23;4.73;;;15.40;99.90;;;;;;6194597;28;20244;-72
2021/09/14 07:09:55;;;;;;;5.87;5.37;;;15.50;99.90;;;;;;6194988;28;20204;-72
2021/09/14 07:12:57;;;;;;;5.90;5.40;;;15.60;99.90;;;;;;6198507;28;20193;-72
2021/09/14 07:16:00;;;;;;;5.97;5.40;;;15.70;99.90;;;;;;6204179;28;20209;-72
2021/09/14 07:19:03;;;;;;;5.67;5.07;;;15.90;99.90;;;;;;6194154;28;20320;-72
2021/09/14 07:22:06;;;;;;;5.60;5.10;;;16.10;99.90;;;;;;6203625;28;20340;-72
2021/09/14 07:25:09;;;;;;;5.57;4.73;;;16.30;99.90;;;;;;6193674;28;20713;-72
2021/09/14 07:28:11;;;;;;;6.10;5.40;;;16.40;99.90;;;;;;6194289;28;20278;-72
2021/09/14 07:31:14;;;;;;;9.20;5.60;;;16.60;99.90;;;;;;6195645;28;20270;-72
2021/09/14 07:34:17;;;;;;;5.50;5.00;;;16.80;99.90;;;;;;6211069;28;20204;-72
2021/09/14 07:37:19;;;;;;;5.90;5.23;;;17.00;99.90;;;;;;6194319;28;20190;-72
2021/09/14 07:40:21;;;;;;;5.73;5.13;;;17.20;99.90;;;;;;6178403;28;20200;-73
2021/09/14 07:43:24;;;;;;;5.63;5.07;;;17.40;99.90;;;;;;6195215;28;20731;-72
2021/09/14 07:46:26;;;;;;;4.80;4.40;;;17.70;99.90;;;;;;6178140;28;20288;-72
2021/09/14 07:49:28;;;;;;;6.30;4.50;;;17.90;99.90;;;;;;6177947;28;20610;-72
2021/09/14 07:52:31;;;;;;;5.00;4.50;;;18.30;99.90;;;;;;6194474;28;20208;-72
2021/09/14 07:55:34;;;;;;;4.97;4.47;;;18.50;99.90;;;;;;6186025;28;20197;-72
2021/09/14 07:58:36;;;;;;;4.83;4.40;;;18.80;99.90;;;;;;6189244;28;20197;-72
2021/09/14 08:01:39;;;;;;;10.20;5.57;;;19.10;99.90;;;;;;6195006;28;20217;-72
2021/09/14 08:04:41;;;;;;;4.90;4.27;;;19.30;99.90;;;;;;6209915;28;20236;-72
2021/09/14 08:07:44;;;;;;;4.77;4.33;;;19.50;99.90;;;;;;6194711;28;20284;-72
2021/09/14 08:10:46;;;;;;;4.57;4.17;;;19.80;99.90;;;;;;6195011;28;20264;-72
2021/09/14 08:14:03;;;;;;;7.70;6.90;;;20.10;99.90;;;;;;6195317;28;20268;-72
2021/09/14 08:17:06;;;;;;;7.13;5.87;;;20.50;99.90;;;;;;6233476;28;20803;-72
2021/09/14 08:20:08;;;;;;;5.53;5.03;;;20.70;99.90;;;;;;6195033;28;20197;-72
2021/09/14 08:23:10;;;;;;;5.93;5.43;;;21.10;99.90;;;;;;6194906;28;20193;-72
2021/09/14 08:26:13;;;;;;;9.00;7.20;;;21.30;99.90;;;;;;6194802;28;20209;-72
2021/09/14 08:29:16;;;;;;;5.83;5.33;;;21.60;99.90;;;;;;6194767;28;20189;-72
2021/09/14 08:32:18;;;;;;;5.37;4.90;;;21.80;99.90;;;;;;6194839;28;20185;-72
2021/09/14 08:35:21;;;;;;;6.47;5.13;;;22.10;99.90;;;;;;6194676;28;20225;-72
2021/09/14 08:38:23;;;;;;;5.17;4.70;;;22.20;99.90;;;;;;6194630;28;20712;-72
2021/09/14 08:41:25;;;;;;;6.60;5.20;;;22.40;99.90;;;;;;6193244;28;20205;-72
2021/09/14 08:44:28;;;;;;;5.67;5.20;;;22.80;99.90;;;;;;6193801;28;20288;-72
2021/09/14 08:47:30;;;;;;;7.93;7.13;;;23.10;99.90;;;;;;6195015;28;20220;-72
2021/09/14 08:50:33;;;;;;;8.20;6.37;;;23.10;99.90;;;;;;6194531;28;20666;-72
2021/09/14 08:53:36;;;;;;;7.40;6.70;;;23.30;99.90;;;;;;6195051;28;20200;-72
2021/09/14 08:56:38;;;;;;;7.90;6.77;;;23.50;99.90;;;;;;6195047;28;20186;-71
2021/09/14 08:59:48;;;;;;;6.93;6.03;;;23.70;99.10;;;;;;6194589;28;20232;-71
2021/09/14 09:02:55;;;;;;;7.57;6.90;;;23.80;98.20;;;;;;6209317;28;20721;-72
2021/09/14 09:05:59;;;;;;;5.80;5.30;;;24.00;97.60;;;;;;6177033;28;20197;-71
2021/09/14 09:09:17;;;;;;;9.20;6.97;;;24.20;97.90;;;;;;6193448;28;20190;-71
2021/09/14 09:12:20;;;;;;;6.30;5.80;;;24.50;97.10;;;;;;6194439;28;20186;-71
2021/09/14 09:15:29;;;;;;;7.27;6.33;;;24.50;96.30;;;;;;6205865;28;20660;-72
2021/09/14 09:18:32;;;;;;;7.77;6.07;;;24.60;94.90;;;;;;6196546;28;20381;-71
2021/09/14 09:21:39;;;;;;;7.50;6.33;;;24.50;94.30;;;;;;6198937;28;20213;-71
2021/09/14 09:24:46;;;;;;;6.47;5.23;;;24.10;94.70;;;;;;6199574;28;20202;-71
2021/09/14 09:28:02;;;;;;;6.17;5.57;;;24.20;96.40;;;;;;6198812;28;20312;-71
2021/09/14 09:31:11;;;;;;;5.60;5.10;;;24.30;95.80;;;;;;6213774;28;20567;-71
2021/09/14 09:34:14;;;;;;;5.63;5.03;;;24.60;96.30;;;;;;6197311;28;20193;-71
2021/09/14 09:37:22;;;;;;;6.40;5.80;;;24.90;95.90;;;;;;6213693;28;20408;-71
2021/09/14 09:40:32;;;;;;;7.38;6.60;;;25.20;94.90;;;;;;6197082;28;20208;-71
2021/09/14 09:43:35;;;;;;;7.63;6.65;;;25.40;93.00;;;;;;6198459;28;20202;-71
2021/09/14 09:46:38;;;;;;;8.23;5.57;;;25.50;93.00;;;;;;6213339;28;20308;-71
2021/09/14 09:49:41;;;;;;;5.63;5.13;;;25.70;92.50;;;;;;6198291;28;20189;-71
2021/09/14 09:52:44;;;;;;;6.78;6.18;;;25.80;91.80;;;;;;6194989;28;20189;-71
2021/09/14 09:55:48;;;;;;;7.40;6.65;;;25.90;91.30;;;;;;6196841;28;20190;-71
2021/09/14 09:58:51;;;;;;;6.80;5.53;;;26.00;90.20;;;;;;6198261;28;20273;-71
2021/09/14 10:02:05;;;;;;;5.63;4.95;;;25.90;90.10;;;;;;6198312;28;20197;-71
2021/09/14 10:05:11;;;;;;;6.75;5.60;;;26.20;91.80;;;;;;6198034;28;20671;-71
2021/09/14 10:08:20;;;;;;;5.50;5.03;;;26.40;90.20;;;;;;6196408;28;20280;-71
2021/09/14 10:11:30;;;;;;;5.32;4.60;;;26.60;89.00;;;;;;6198091;28;20193;-71
2021/09/14 10:14:33;;;;;;;5.43;4.93;;;26.80;90.10;;;;;;6200056;28;20217;-71
2021/09/14 10:17:52;;;;;;;5.68;5.03;;;27.20;90.50;;;;;;6197933;28;20357;-71
2021/09/14 10:20:55;;;;;;;5.25;4.47;;;27.50;86.80;;;;;;6197714;28;20201;-71
2021/09/14 10:23:57;;;;;;;7.10;6.50;;;27.70;88.30;;;;;;6197676;28;20194;-71
2021/09/14 10:27:12;;;;;;;9.38;5.75;;;27.70;83.10;;;;;;6197410;28;20217;-71
2021/09/14 10:30:23;;;;;;;6.70;5.80;;;27.60;85.40;;;;;;6197397;28;20190;-71
2021/09/14 10:33:29;;;;;;;7.97;6.35;;;27.60;83.70;;;;;;6197291;28;20197;-71
2021/09/14 10:36:34;;;;;;;6.15;4.78;;;27.60;81.60;;;;;;6197325;28;20228;-71
2021/09/14 10:39:39;;;;;;;7.22;6.55;;;27.60;82.00;;;;;;6197146;28;20309;-71
2021/09/14 10:42:44;;;;;;;12.70;7.07;;;27.50;82.80;;;;;;6197553;28;20197;-71
2021/09/14 10:45:47;;;;;;;6.53;6.03;;;27.30;82.00;;;;;;6197253;28;20197;-71
2021/09/14 10:48:54;;;;;;;8.20;5.80;;;27.20;82.10;;;;;;6195529;28;20363;-71
2021/09/14 10:51:57;;;;;;;6.13;5.53;;;27.10;82.00;;;;;;6203915;28;20202;-71
2021/09/14 10:55:05;;;;;;;6.63;5.57;;;27.30;83.20;;;;;;6211795;28;20201;-71
2021/09/14 10:58:07;;;;;;;8.68;6.07;;;27.40;81.00;;;;;;6196696;28;20961;-71
2021/09/14 11:01:11;;;;;;;8.10;7.25;;;27.40;81.40;;;;;;6196467;28;20241;-71
2021/09/14 11:04:13;;;;;;;7.28;6.57;;;27.80;79.90;;;;;;6196419;28;20648;-71
2021/09/14 11:07:17;;;;;;;5.95;5.38;;;28.10;79.70;;;;;;6196593;28;20228;-71
2021/09/14 11:10:20;;;;;;;7.72;6.97;;;28.00;79.40;;;;;;6196639;28;20653;-71
2021/09/14 11:13:24;;;;;;;6.80;6.20;;;27.90;77.80;;;;;;6196387;28;20217;-71
2021/09/14 11:16:28;;;;;;;8.20;6.47;;;27.80;77.10;;;;;;6229926;28;20193;-71
2021/09/14 11:19:31;;;;;;;6.20;5.55;;;27.90;77.90;;;;;;6196327;28;20312;-71
2021/09/14 11:22:36;;;;;;;6.85;6.20;;;28.10;77.20;;;;;;6196187;28;20219;-71
2021/09/14 11:25:39;;;;;;;10.65;6.35;;;28.30;76.70;;;;;;6196443;28;20190;-71
2021/09/14 11:28:56;;;;;;;6.22;5.63;;;28.60;77.10;;;;;;6211362;28;20221;-71
2021/09/14 11:31:58;;;;;;;6.60;6.03;;;28.60;76.20;;;;;;6210983;28;20216;-71
2021/09/14 11:35:07;;;;;;;8.18;6.65;;;28.80;74.00;;;;;;6194866;28;20259;-71
2021/09/14 11:38:11;;;;;;;10.77;5.80;;;28.90;73.20;;;;;;6195494;28;20197;-71
2021/09/14 11:41:14;;;;;;;6.65;5.75;;;28.90;75.50;;;;;;6195323;28;20197;-71
2021/09/14 11:44:28;;;;;;;7.13;6.30;;;28.90;74.90;;;;;;6195953;28;20186;-71
2021/09/14 11:47:31;;;;;;;7.00;5.82;;;28.80;73.90;;;;;;6195715;28;20202;-71
2021/09/14 11:50:34;;;;;;;6.63;6.03;;;28.90;74.50;;;;;;6194565;28;20193;-71
2021/09/14 11:53:38;;;;;;;7.75;5.47;;;29.00;73.80;;;;;;6186280;28;20205;-71
2021/09/14 11:56:42;;;;;;;7.22;5.93;;;29.20;74.50;;;;;;6186318;28;20190;-71
2021/09/14 11:59:45;;;;;;;5.80;5.38;;;29.50;71.80;;;;;;6188641;28;20217;-71
2021/09/14 12:02:51;;;;;;;7.75;5.80;;;29.70;72.00;;;;;;6210082;28;20380;-71
2021/09/14 12:05:57;;;;;;;6.13;5.45;;;30.00;69.10;;;;;;6194227;28;20691;-71
2021/09/14 12:09:08;;;;;;;6.63;5.93;;;30.20;70.70;;;;;;6195462;28;20251;-71
2021/09/14 12:12:12;;;;;;;7.15;5.95;;;30.20;67.50;;;;;;6195447;28;20189;-71
2021/09/14 12:15:14;;;;;;;7.95;5.65;;;30.00;67.20;;;;;;6201761;28;20216;-71
2021/09/14 12:18:17;;;;;;;7.93;5.55;;;30.10;67.50;;;;;;6195144;28;20268;-71
2021/09/14 12:21:20;;;;;;;10.30;5.60;;;30.20;66.10;;;;;;6202511;28;20284;-71
2021/09/14 12:24:23;;;;;;;7.68;5.25;;;30.60;67.10;;;;;;6192714;28;20254;-71
2021/09/14 12:27:29;;;;;;;6.63;5.85;;;30.50;65.10;;;;;;6195057;28;20212;-71
2021/09/14 12:30:33;;;;;;;6.85;5.45;;;30.70;66.00;;;;;;6195362;28;20193;-71
2021/09/14 12:33:36;;;;;;;5.97;5.38;;;30.90;63.60;;;;;;6195255;28;20197;-71
2021/09/14 12:36:42;;;;;;;6.35;5.65;;;31.00;62.90;;;;;;6177761;28;20201;-71
2021/09/14 12:39:45;;;;;;;8.00;5.30;;;31.10;62.10;;;;;;6194746;28;20193;-71
2021/09/14 12:42:47;;;;;;;5.90;5.40;;;30.90;62.80;;;;;;6193787;28;20197;-71
2021/09/14 12:45:50;;;;;;;7.50;6.07;;;30.90;62.30;;;;;;6193684;28;20221;-71
2021/09/14 12:48:53;;;;;;;7.13;6.15;;;31.00;61.60;;;;;;6194863;28;20241;-71
2021/09/14 12:51:56;;;;;;;6.13;5.00;;;31.00;61.40;;;;;;6194903;28;20194;-71
2021/09/14 12:54:58;;;;;;;6.15;5.53;;;31.00;60.40;;;;;;6198502;28;20320;-71
2021/09/14 12:58:03;;;;;;;5.93;5.35;;;30.90;59.20;;;;;;6199604;28;20193;-71
2021/09/14 13:01:06;;;;;;;7.63;5.07;;;31.00;60.00;;;;;;6199249;28;20296;-71
2021/09/14 13:04:09;;;;;;;6.97;5.35;;;31.40;59.00;;;;;;6199319;28;20233;-71
2021/09/14 13:07:12;;;;;;;5.28;4.80;;;31.80;58.20;;;;;;6214391;28;20200;-71
2021/09/14 13:10:14;;;;;;;6.32;5.68;;;32.20;59.00;;;;;;6199175;28;20268;-71
2021/09/14 13:16:58;;;;;;;8.38;5.55;;;32.90;56.00;;;;;;6124265;29;20616;-71
2021/09/14 13:20:01;;;;;;;7.85;5.68;;;33.20;54.90;;;;;;6124327;29;20280;-70
2021/09/14 13:23:03;;;;;;;5.55;5.05;;;33.50;54.10;;;;;;6195492;28;20197;-71
2021/09/14 13:26:06;;;;;;;6.68;5.50;;;33.90;54.70;;;;;;6199123;28;20210;-71
2021/09/14 13:29:09;;;;;;;5.85;5.15;;;34.20;52.80;;;;;;6196956;28;20300;-71
2021/09/14 13:32:12;;;;;;;5.90;5.22;;;34.40;51.80;;;;;;6189251;28;20194;-71
2021/09/14 13:35:14;;;;;;;6.50;5.00;;;34.40;51.30;;;;;;6184553;28;20665;-70
2021/09/14 13:38:17;;;;;;;7.13;4.93;;;34.60;51.90;;;;;;6198502;28;20198;-71
2021/09/14 13:41:25;;;;;;;5.70;5.20;;;35.00;51.40;;;;;;6198608;28;20194;-71
2021/09/14 13:47:31;;;;;;;11.25;5.60;;;34.70;50.00;;;;;;6198400;28;20236;-71
2021/09/14 13:50:35;;;;;;;8.32;5.72;;;34.20;49.90;;;;;;6197937;28;20775;-70
2021/09/14 13:53:38;;;;;;;8.07;4.72;;;34.10;50.30;;;;;;6198281;28;20241;-71
2021/09/14 13:56:40;;;;;;;6.53;5.00;;;34.30;49.80;;;;;;6198140;28;20221;-71
2021/09/14 13:59:44;;;;;;;6.15;5.15;;;34.60;48.60;;;;;;6197836;28;20305;-71
2021/09/14 14:02:47;;;;;;;5.43;4.93;;;34.70;48.50;;;;;;6197738;28;20293;-70
2021/09/14 14:05:49;;;;;;;6.63;6.05;;;34.60;49.60;;;;;;6197687;28;20521;-69
2021/09/14 14:08:52;;;;;;;9.27;5.90;;;34.20;49.20;;;;;;6196346;28;20221;-70
2021/09/14 14:11:54;;;;;;;5.32;4.63;;;33.00;50.40;;;;;;6197798;28;20562;-70
2021/09/14 14:14:56;;;;;;;5.50;4.90;;;31.70;53.20;;;;;;6205315;28;20227;-71
2021/09/14 14:17:59;;;;;;;5.50;4.72;;;30.80;56.70;;;;;;6199792;28;20205;-71
2021/09/14 14:21:02;;;;;;;7.35;5.22;;;30.20;57.50;;;;;;6197168;28;20268;-71
2021/09/14 14:24:05;;;;;;;6.13;5.00;;;29.50;59.70;;;;;;6197617;28;20238;-71
2021/09/14 14:27:08;;;;;;;5.57;5.03;;;28.90;61.90;;;;;;6197622;28;20208;-71
2021/09/14 14:30:11;;;;;;;8.60;5.25;;;28.60;65.70;;;;;;6197378;28;20217;-71
2021/09/14 14:33:14;;;;;;;6.00;5.05;;;28.30;67.50;;;;;;6180212;28;20541;-71
2021/09/14 14:36:17;;;;;;;8.52;5.32;;;28.10;69.00;;;;;;6197438;28;20193;-70
2021/09/14 14:39:20;;;;;;;7.07;4.93;;;27.70;69.20;;;;;;6179852;28;20225;-70
2021/09/14 14:42:23;;;;;;;6.15;5.15;;;27.40;71.60;;;;;;6197197;28;20780;-70
2021/09/14 14:45:25;;;;;;;5.68;4.85;;;27.10;72.30;;;;;;6196979;28;20200;-70
2021/09/14 14:48:29;;;;;;;6.57;5.18;;;26.90;73.80;;;;;;6196987;28;20212;-70
2021/09/14 14:51:32;;;;;;;6.10;5.20;;;26.70;75.50;;;;;;6196977;28;20189;-70
2021/09/14 14:54:35;;;;;;;5.15;4.65;;;26.50;76.50;;;;;;6212019;28;20499;-70
2021/09/14 14:57:38;;;;;;;5.55;5.05;;;26.20;78.00;;;;;;6196920;28;20240;-70
2021/09/14 15:00:43;;;;;;;7.25;4.75;;;26.00;79.40;;;;;;6196628;28;20563;-70
2021/09/14 15:03:46;;;;;;;5.30;4.80;;;25.90;80.90;;;;;;6211673;28;20717;-70
2021/09/14 15:06:49;;;;;;;5.93;5.22;;;25.70;81.90;;;;;;6196647;28;20342;-70
2021/09/14 15:09:52;;;;;;;6.07;5.57;;;25.60;83.00;;;;;;6196547;28;20217;-70
2021/09/14 15:12:54;;;;;;;5.50;5.00;;;25.60;83.60;;;;;;6196493;28;20196;-70
2021/09/14 15:15:58;;;;;;;4.97;4.50;;;25.40;84.50;;;;;;6210251;28;20191;-70
2021/09/14 15:19:00;;;;;;;7.80;5.50;;;25.40;85.30;;;;;;6206798;28;20205;-70
2021/09/14 15:22:03;;;;;;;5.88;5.35;;;25.20;86.30;;;;;;6196531;28;20300;-70
2021/09/14 15:25:06;;;;;;;5.18;4.68;;;25.10;87.60;;;;;;6196252;28;20196;-70
2021/09/14 15:28:09;;;;;;;6.03;5.20;;;24.90;88.30;;;;;;6194795;28;20570;-70
2021/09/14 15:31:12;;;;;;;5.60;4.88;;;24.90;88.70;;;;;;6196141;28;20205;-70
2021/09/14 15:34:15;;;;;;;5.18;4.70;;;24.70;89.60;;;;;;6196253;28;20193;-70
2021/09/14 15:37:19;;;;;;;12.43;5.32;;;24.70;90.30;;;;;;6195728;28;20189;-70
2021/09/14 15:40:22;;;;;;;6.97;5.53;;;24.50;90.40;;;;;;6195814;28;20508;-70
2021/09/14 15:43:27;;;;;;;4.93;4.53;;;24.40;90.80;;;;;;6211036;28;20661;-70
2021/09/14 15:46:29;;;;;;;5.85;5.30;;;24.30;90.90;;;;;;6195771;28;20193;-70
2021/09/14 15:49:32;;;;;;;11.48;6.10;;;24.30;91.20;;;;;;6194356;28;20283;-70
2021/09/14 15:52:34;;;;;;;8.30;5.72;;;24.30;91.50;;;;;;6209613;28;20692;-70
2021/09/14 15:55:38;;;;;;;5.35;4.95;;;24.20;91.60;;;;;;6195683;28;20213;-70
2021/09/14 15:58:43;;;;;;;5.40;4.90;;;24.00;92.20;;;;;;6195426;28;20205;-70
2021/09/14 16:01:46;;;;;;;5.82;5.18;;;23.80;92.70;;;;;;6194164;28;20205;-70
2021/09/14 16:04:49;;;;;;;6.50;5.30;;;23.60;93.30;;;;;;6195456;28;20287;-71
2021/09/14 16:07:51;;;;;;;7.27;5.20;;;23.40;93.90;;;;;;6195128;28;20193;-71
2021/09/14 16:10:58;;;;;;;6.13;4.77;;;23.20;94.80;;;;;;6195392;28;20697;-71
2021/09/14 16:14:00;;;;;;;8.47;6.07;;;22.90;95.40;;;;;;6195683;28;20208;-70
2021/09/14 16:17:03;;;;;;;5.17;4.70;;;22.70;96.10;;;;;;6210043;28;20196;-70
2021/09/14 16:20:07;;;;;;;6.00;5.40;;;22.60;96.60;;;;;;6195057;28;20201;-70
2021/09/14 16:23:09;;;;;;;5.97;5.37;;;22.60;97.20;;;;;;6195307;28;20717;-70
2021/09/14 16:26:12;;;;;;;5.83;5.30;;;22.40;97.70;;;;;;6194052;28;20224;-70
2021/09/14 16:29:16;;;;;;;6.07;5.47;;;22.30;98.30;;;;;;6199649;28;20220;-70
2021/09/14 16:32:19;;;;;;;6.40;5.50;;;22.20;99.10;;;;;;6200184;28;20197;-70
2021/09/14 16:35:22;;;;;;;6.40;5.20;;;21.90;99.90;;;;;;6214922;28;20205;-70
2021/09/14 16:38:25;;;;;;;6.50;5.80;;;21.70;99.90;;;;;;6200051;28;20193;-70
2021/09/14 16:41:27;;;;;;;6.00;5.50;;;21.60;99.90;;;;;;6200060;28;20194;-70
2021/09/14 16:44:30;;;;;;;7.93;5.83;;;21.50;99.90;;;;;;6200176;28;20194;-70
2021/09/14 16:47:34;;;;;;;6.13;5.53;;;21.40;99.90;;;;;;6199938;28;20566;-70
2021/09/14 16:50:37;;;;;;;6.70;6.10;;;21.30;99.90;;;;;;6198236;28;20443;-70